PWSweather.com
Personal Weather Stations
Station Observations
WD4JKH
Forsyth, GA 31029

Forsyth, GA 31029

Lat: 33.033225, Lon: -83.927995

Elevation: 709

Station Type: Davis Vantage VUE

High Low Average
Temperature 54.0°F12.2°C 36.8°F2.7°C 45.0°F7.2°C
Dew Point 53.7°F12.1°C 35.5°F1.9°C 44.3°F6.8°C
Winds 4.0 mph 6.4 kmh Calm Calm 1.0 mph E1.6 kmh E
Wind Gusts 8.0 mph12.9 kmh 1.0 mph1.6 kmh 3.0 mph4.8 kmh
Humidity 99% 95% 98%
Pressure 30.35 in1027.8 mb 30.07 in1018.3 mb -
Precipitation 0.09 in2.3 mm - -
Hour Temp Dew Point Humidity Winds Wind Gusts Pressure Precip Precip Rate Daily Precip Total
12:00 AM 37.1°F2.8°C 35.8°F2.1°C 95% 2.0 mph NE3.2 kmh NE 7.0 mph11.3 kmh 30.35 in1027.8 mb 0.03 in0.8 mm 0.00 in0.0 mm 0.03 in0.8 mm
12:05 AM 37.0°F2.8°C 35.7°F2.1°C 95% 3.4 mph NE5.5 kmh NE 7.0 mph11.3 kmh 30.35 in1027.8 mb 0.04 in1.0 mm 0.12 in3.0 mm 0.01 in0.3 mm
12:10 AM 36.8°F2.7°C 35.5°F1.9°C 95% 4.0 mph NE6.4 kmh NE 7.0 mph11.3 kmh 30.35 in1027.8 mb 0.04 in1.0 mm 0.00 in0.0 mm 0.02 in0.5 mm
12:15 AM 36.8°F2.7°C 35.5°F1.9°C 95% 2.3 mph NE3.7 kmh NE 7.0 mph11.3 kmh 30.35 in1027.8 mb 0.05 in1.3 mm 0.12 in3.0 mm 0.03 in0.8 mm
12:20 AM 36.8°F2.7°C 35.8°F2.1°C 96% 3.4 mph NE5.5 kmh NE 8.0 mph12.9 kmh 30.35 in1027.8 mb 0.05 in1.3 mm 0.00 in0.0 mm 0.03 in0.8 mm
12:25 AM 36.9°F2.7°C 35.8°F2.1°C 96% 3.4 mph NE5.5 kmh NE 8.0 mph12.9 kmh 30.35 in1027.8 mb 0.05 in1.3 mm 0.00 in0.0 mm 0.03 in0.8 mm
12:30 AM 36.8°F2.7°C 35.7°F2.1°C 96% 3.4 mph NE5.5 kmh NE 8.0 mph12.9 kmh 30.35 in1027.8 mb 0.05 in1.3 mm 0.00 in0.0 mm 0.03 in0.8 mm
12:35 AM 36.9°F2.7°C 35.8°F2.1°C 96% 3.6 mph NE5.8 kmh NE 8.0 mph12.9 kmh 30.35 in1027.8 mb 0.05 in1.3 mm 0.00 in0.0 mm 0.03 in0.8 mm
12:40 AM 36.9°F2.7°C 35.8°F2.1°C 96% 2.5 mph NE4.0 kmh NE 6.0 mph9.7 kmh 30.34 in1027.4 mb 0.05 in1.3 mm 0.00 in0.0 mm 0.03 in0.8 mm
12:45 AM 36.9°F2.7°C 35.8°F2.1°C 96% 2.5 mph NE4.0 kmh NE 6.0 mph9.7 kmh 30.34 in1027.4 mb 0.05 in1.3 mm 0.00 in0.0 mm 0.04 in1.0 mm
12:50 AM 36.9°F2.7°C 35.8°F2.1°C 96% 2.1 mph NE3.4 kmh NE 8.0 mph12.9 kmh 30.34 in1027.4 mb 0.06 in1.5 mm 0.12 in3.0 mm 0.06 in1.5 mm
12:55 AM 36.9°F2.7°C 35.9°F2.2°C 96% 1.2 mph NE1.9 kmh NE 8.0 mph12.9 kmh 30.34 in1027.4 mb 0.07 in1.8 mm 0.12 in3.0 mm 0.07 in1.8 mm
01:00 AM 36.9°F2.7°C 35.8°F2.1°C 96% 2.8 mph ENE4.5 kmh ENE 8.0 mph12.9 kmh 30.34 in1027.4 mb 0.08 in2.0 mm 0.01 in0.3 mm 0.08 in2.0 mm
01:05 AM 37.0°F2.8°C 35.9°F2.2°C 96% 2.0 mph NE3.2 kmh NE 6.0 mph9.7 kmh 30.34 in1027.4 mb 0.07 in1.8 mm 0.00 in0.0 mm 0.08 in2.0 mm
01:10 AM 37.0°F2.8°C 35.9°F2.2°C 96% 2.4 mph NE3.9 kmh NE 5.0 mph8.0 kmh 30.33 in1027.1 mb 0.06 in1.5 mm 0.00 in0.0 mm 0.08 in2.0 mm
01:15 AM 37.1°F2.8°C 36.0°F2.2°C 96% 1.8 mph NE2.9 kmh NE 5.0 mph8.0 kmh 30.34 in1027.4 mb 0.05 in1.3 mm 0.00 in0.0 mm 0.08 in2.0 mm
01:20 AM 37.1°F2.8°C 36.0°F2.2°C 96% 1.3 mph NNE2.1 kmh NNE 5.0 mph8.0 kmh 30.33 in1027.1 mb 0.05 in1.3 mm 0.00 in0.0 mm 0.08 in2.0 mm
01:25 AM 37.2°F2.9°C 36.1°F2.3°C 96% 2.8 mph NE4.5 kmh NE 5.0 mph8.0 kmh 30.33 in1027.1 mb 0.05 in1.3 mm 0.00 in0.0 mm 0.08 in2.0 mm
01:30 AM 37.2°F2.9°C 36.2°F2.3°C 96% 1.6 mph NNE2.6 kmh NNE 4.0 mph6.4 kmh 30.33 in1027.1 mb 0.05 in1.3 mm 0.00 in0.0 mm 0.08 in2.0 mm
01:35 AM 37.1°F2.8°C 36.0°F2.2°C 96% 3.0 mph NE4.8 kmh NE 6.0 mph9.7 kmh 30.32 in1026.8 mb 0.05 in1.3 mm 0.00 in0.0 mm 0.08 in2.0 mm
01:40 AM 37.1°F2.8°C 36.0°F2.2°C 96% 3.3 mph NE5.3 kmh NE 6.0 mph9.7 kmh 30.32 in1026.8 mb 0.05 in1.3 mm 0.00 in0.0 mm 0.08 in2.0 mm
01:45 AM 37.0°F2.8°C 35.9°F2.2°C 96% 3.7 mph NE6.0 kmh NE 6.0 mph9.7 kmh 30.32 in1026.8 mb 0.04 in1.0 mm 0.00 in0.0 mm 0.08 in2.0 mm
01:50 AM 37.1°F2.8°C 36.1°F2.3°C 96% 2.4 mph NE3.9 kmh NE 6.0 mph9.7 kmh 30.32 in1026.8 mb 0.01 in0.3 mm 0.00 in0.0 mm 0.08 in2.0 mm
01:55 AM 37.1°F2.8°C 36.1°F2.3°C 96% 3.6 mph NE5.8 kmh NE 6.0 mph9.7 kmh 30.32 in1026.8 mb 0.01 in0.3 mm 0.00 in0.0 mm 0.08 in2.0 mm
02:00 AM 37.1°F2.8°C 36.0°F2.2°C 96% 2.7 mph NE4.3 kmh NE 6.0 mph9.7 kmh 30.31 in1026.4 mb 0.00 in0.0 mm 0.00 in0.0 mm 0.08 in2.0 mm
02:05 AM 37.2°F2.9°C 36.1°F2.3°C 96% 1.7 mph NNE2.7 kmh NNE 6.0 mph9.7 kmh 30.31 in1026.4 mb 0.00 in0.0 mm 0.00 in0.0 mm 0.08 in2.0 mm
02:10 AM 37.1°F2.8°C 36.0°F2.2°C 96% 2.9 mph NE4.7 kmh NE 6.0 mph9.7 kmh 30.31 in1026.4 mb 0.00 in0.0 mm 0.00 in0.0 mm 0.08 in2.0 mm
02:15 AM 37.3°F2.9°C 36.3°F2.4°C 96% 2.9 mph NE4.7 kmh NE 6.0 mph9.7 kmh 30.31 in1026.4 mb 0.00 in0.0 mm 0.00 in0.0 mm 0.08 in2.0 mm
02:20 AM 37.3°F2.9°C 36.2°F2.3°C 96% 3.5 mph NE5.6 kmh NE 6.0 mph9.7 kmh 30.31 in1026.4 mb 0.00 in0.0 mm 0.00 in0.0 mm 0.08 in2.0 mm
02:25 AM 37.3°F2.9°C 36.2°F2.3°C 96% 3.1 mph NE5.0 kmh NE 6.0 mph9.7 kmh 30.31 in1026.4 mb 0.00 in0.0 mm 0.00 in0.0 mm 0.08 in2.0 mm
02:30 AM 37.3°F2.9°C 36.2°F2.3°C 96% 2.9 mph NNE4.7 kmh NNE 6.0 mph9.7 kmh 30.30 in1026.1 mb 0.00 in0.0 mm 0.00 in0.0 mm 0.08 in2.0 mm
02:35 AM 37.4°F3.0°C 36.6°F2.6°C 97% 1.1 mph NNE1.8 kmh NNE 6.0 mph9.7 kmh 30.30 in1026.1 mb 0.00 in0.0 mm 0.00 in0.0 mm 0.08 in2.0 mm
02:40 AM 37.4°F3.0°C 36.6°F2.6°C 97% 2.7 mph NNE4.3 kmh NNE 6.0 mph9.7 kmh 30.30 in1026.1 mb 0.00 in0.0 mm 0.00 in0.0 mm 0.08 in2.0 mm
02:45 AM 37.3°F2.9°C 36.2°F2.3°C 96% 2.1 mph NE3.4 kmh NE 6.0 mph9.7 kmh 30.30 in1026.1 mb 0.00 in0.0 mm 0.00 in0.0 mm 0.08 in2.0 mm
02:50 AM 37.3°F2.9°C 36.5°F2.5°C 97% 2.2 mph NE3.5 kmh NE 5.0 mph8.0 kmh 30.30 in1026.1 mb 0.00 in0.0 mm 0.00 in0.0 mm 0.08 in2.0 mm
02:55 AM 37.4°F3.0°C 36.6°F2.6°C 97% 1.6 mph NNE2.6 kmh NNE 5.0 mph8.0 kmh 30.29 in1025.7 mb 0.00 in0.0 mm 0.00 in0.0 mm 0.08 in2.0 mm
03:00 AM 37.4°F3.0°C 36.6°F2.6°C 97% 1.2 mph N1.9 kmh N 5.0 mph8.0 kmh 30.30 in1026.1 mb 0.00 in0.0 mm 0.00 in0.0 mm 0.08 in2.0 mm
03:05 AM 37.5°F3.1°C 36.7°F2.6°C 97% 1.7 mph NNE2.7 kmh NNE 5.0 mph8.0 kmh 30.30 in1026.1 mb 0.00 in0.0 mm 0.00 in0.0 mm 0.08 in2.0 mm
03:10 AM 37.5°F3.1°C 36.7°F2.6°C 97% 1.9 mph N3.1 kmh N 6.0 mph9.7 kmh 30.30 in1026.1 mb 0.00 in0.0 mm 0.00 in0.0 mm 0.08 in2.0 mm
03:15 AM 37.6°F3.1°C 36.8°F2.7°C 97% 2.8 mph NNE4.5 kmh NNE 6.0 mph9.7 kmh 30.30 in1026.1 mb 0.00 in0.0 mm 0.00 in0.0 mm 0.08 in2.0 mm
03:20 AM 37.6°F3.1°C 36.8°F2.7°C 97% 2.0 mph NE3.2 kmh NE 6.0 mph9.7 kmh 30.29 in1025.7 mb 0.00 in0.0 mm 0.00 in0.0 mm 0.08 in2.0 mm
03:25 AM 37.6°F3.1°C 36.8°F2.7°C 97% 1.4 mph NE2.3 kmh NE 6.0 mph9.7 kmh 30.29 in1025.7 mb 0.00 in0.0 mm 0.00 in0.0 mm 0.08 in2.0 mm
03:30 AM 37.6°F3.1°C 36.8°F2.7°C 97% 1.0 mph NNE1.6 kmh NNE 5.0 mph8.0 kmh 30.29 in1025.7 mb 0.00 in0.0 mm 0.00 in0.0 mm 0.08 in2.0 mm
03:35 AM 37.7°F3.2°C 36.9°F2.7°C 97% Calm Calm 5.0 mph8.0 kmh 30.29 in1025.7 mb 0.00 in0.0 mm 0.00 in0.0 mm 0.08 in2.0 mm
03:40 AM 37.7°F3.2°C 36.9°F2.7°C 97% 1.0 mph NE1.6 kmh NE 2.0 mph3.2 kmh 30.29 in1025.7 mb 0.00 in0.0 mm 0.00 in0.0 mm 0.08 in2.0 mm
03:45 AM 37.7°F3.2°C 36.9°F2.7°C 97% 1.0 mph NE1.6 kmh NE 2.0 mph3.2 kmh 30.29 in1025.7 mb 0.00 in0.0 mm 0.00 in0.0 mm 0.08 in2.0 mm
03:50 AM 37.6°F3.1°C 36.8°F2.7°C 97% 1.0 mph NE1.6 kmh NE 2.0 mph3.2 kmh 30.29 in1025.7 mb 0.00 in0.0 mm 0.00 in0.0 mm 0.08 in2.0 mm
03:55 AM 37.7°F3.2°C 36.9°F2.7°C 97% 1.0 mph NE1.6 kmh NE 2.0 mph3.2 kmh 30.28 in1025.4 mb 0.00 in0.0 mm 0.00 in0.0 mm 0.08 in2.0 mm
04:00 AM 37.8°F3.2°C 37.0°F2.8°C 97% 1.0 mph NE1.6 kmh NE 2.0 mph3.2 kmh 30.28 in1025.4 mb 0.00 in0.0 mm 0.00 in0.0 mm 0.08 in2.0 mm
04:06 AM 37.8°F3.2°C 37.0°F2.8°C 97% 1.7 mph NE2.7 kmh NE 3.0 mph4.8 kmh 30.28 in1025.4 mb 0.00 in0.0 mm 0.00 in0.0 mm 0.08 in2.0 mm
04:10 AM 37.8°F3.2°C 37.0°F2.8°C 97% Calm Calm 3.0 mph4.8 kmh 30.28 in1025.4 mb 0.00 in0.0 mm 0.00 in0.0 mm 0.08 in2.0 mm
04:15 AM 37.8°F3.2°C 37.0°F2.8°C 97% 1.0 mph NE1.6 kmh NE 3.0 mph4.8 kmh 30.28 in1025.4 mb 0.00 in0.0 mm 0.00 in0.0 mm 0.08 in2.0 mm
04:21 AM 37.8°F3.2°C 37.0°F2.8°C 97% Calm Calm 3.0 mph4.8 kmh 30.28 in1025.4 mb 0.00 in0.0 mm 0.00 in0.0 mm 0.08 in2.0 mm
04:26 AM 37.8°F3.2°C 37.0°F2.8°C 97% 1.0 mph NE1.6 kmh NE 1.0 mph1.6 kmh 30.28 in1025.4 mb 0.00 in0.0 mm 0.00 in0.0 mm 0.08 in2.0 mm
04:31 AM 37.9°F3.3°C 37.1°F2.8°C 97% 1.7 mph NE2.7 kmh NE 2.0 mph3.2 kmh 30.27 in1025.1 mb 0.00 in0.0 mm 0.00 in0.0 mm 0.08 in2.0 mm
04:36 AM 37.9°F3.3°C 37.1°F2.8°C 97% 2.1 mph NE3.4 kmh NE 3.0 mph4.8 kmh 30.27 in1025.1 mb 0.00 in0.0 mm 0.00 in0.0 mm 0.08 in2.0 mm
04:41 AM 37.9°F3.3°C 37.1°F2.8°C 97% 1.7 mph NE2.7 kmh NE 3.0 mph4.8 kmh 30.27 in1025.1 mb 0.00 in0.0 mm 0.00 in0.0 mm 0.08 in2.0 mm
04:46 AM 37.9°F3.3°C 37.1°F2.8°C 97% 2.1 mph NE3.4 kmh NE 4.0 mph6.4 kmh 30.27 in1025.1 mb 0.00 in0.0 mm 0.00 in0.0 mm 0.08 in2.0 mm
04:51 AM 37.9°F3.3°C 37.1°F2.8°C 97% 2.8 mph NE4.5 kmh NE 4.0 mph6.4 kmh 30.27 in1025.1 mb 0.00 in0.0 mm 0.00 in0.0 mm 0.08 in2.0 mm
04:56 AM 37.9°F3.3°C 37.1°F2.8°C 97% 1.0 mph N1.6 kmh N 4.0 mph6.4 kmh 30.27 in1025.1 mb 0.00 in0.0 mm 0.00 in0.0 mm 0.08 in2.0 mm
05:01 AM 37.9°F3.3°C 37.1°F2.8°C 97% 1.9 mph NE3.1 kmh NE 4.0 mph6.4 kmh 30.27 in1025.1 mb 0.00 in0.0 mm 0.00 in0.0 mm 0.08 in2.0 mm
05:06 AM 38.0°F3.3°C 37.2°F2.9°C 97% 1.0 mph NNE1.6 kmh NNE 4.0 mph6.4 kmh 30.27 in1025.1 mb 0.00 in0.0 mm 0.00 in0.0 mm 0.08 in2.0 mm
05:11 AM 37.9°F3.3°C 37.1°F2.8°C 97% 1.7 mph NE2.7 kmh NE 5.0 mph8.0 kmh 30.27 in1025.1 mb 0.00 in0.0 mm 0.00 in0.0 mm 0.08 in2.0 mm
05:16 AM 38.0°F3.3°C 37.2°F2.9°C 97% 1.6 mph NE2.6 kmh NE 5.0 mph8.0 kmh 30.27 in1025.1 mb 0.00 in0.0 mm 0.00 in0.0 mm 0.08 in2.0 mm
05:21 AM 38.0°F3.3°C 37.2°F2.9°C 97% 1.4 mph NE2.3 kmh NE 5.0 mph8.0 kmh 30.27 in1025.1 mb 0.00 in0.0 mm 0.00 in0.0 mm 0.08 in2.0 mm
05:26 AM 37.9°F3.3°C 37.1°F2.8°C 97% 1.9 mph NE3.1 kmh NE 5.0 mph8.0 kmh 30.26 in1024.7 mb 0.00 in0.0 mm 0.00 in0.0 mm 0.08 in2.0 mm
05:31 AM 37.9°F3.3°C 37.1°F2.8°C 97% 1.3 mph NE2.1 kmh NE 4.0 mph6.4 kmh 30.26 in1024.7 mb 0.00 in0.0 mm 0.00 in0.0 mm 0.08 in2.0 mm
05:36 AM 37.9°F3.3°C 37.1°F2.8°C 97% 1.8 mph NE2.9 kmh NE 4.0 mph6.4 kmh 30.26 in1024.7 mb 0.00 in0.0 mm 0.00 in0.0 mm 0.08 in2.0 mm
05:39 AM 38.0°F3.3°C 37.2°F2.9°C 97% 1.0 mph NE1.6 kmh NE 4.0 mph6.4 kmh 30.26 in1024.7 mb 0.00 in0.0 mm 0.00 in0.0 mm 0.08 in2.0 mm
05:44 AM 38.0°F3.3°C 37.2°F2.9°C 97% 1.0 mph NE1.6 kmh NE 3.0 mph4.8 kmh 30.26 in1024.7 mb 0.00 in0.0 mm 0.00 in0.0 mm 0.08 in2.0 mm
05:49 AM 38.0°F3.3°C 37.2°F2.9°C 97% 1.2 mph NE1.9 kmh NE 3.0 mph4.8 kmh 30.26 in1024.7 mb 0.00 in0.0 mm 0.00 in0.0 mm 0.08 in2.0 mm
05:54 AM 38.1°F3.4°C 37.3°F2.9°C 97% 1.2 mph NE1.9 kmh NE 2.0 mph3.2 kmh 30.26 in1024.7 mb 0.00 in0.0 mm 0.00 in0.0 mm 0.08 in2.0 mm
05:59 AM 38.1°F3.4°C 37.3°F2.9°C 97% 1.4 mph NE2.3 kmh NE 2.0 mph3.2 kmh 30.26 in1024.7 mb 0.00 in0.0 mm 0.00 in0.0 mm 0.08 in2.0 mm
06:04 AM 38.1°F3.4°C 37.3°F2.9°C 97% Calm Calm 2.0 mph3.2 kmh 30.26 in1024.7 mb 0.00 in0.0 mm 0.00 in0.0 mm 0.08 in2.0 mm
06:09 AM 38.2°F3.4°C 37.4°F3.0°C 97% 1.0 mph NE1.6 kmh NE 2.0 mph3.2 kmh 30.26 in1024.7 mb 0.00 in0.0 mm 0.00 in0.0 mm 0.08 in2.0 mm
06:14 AM 38.2°F3.4°C 37.4°F3.0°C 97% 1.0 mph NNE1.6 kmh NNE 2.0 mph3.2 kmh 30.26 in1024.7 mb 0.00 in0.0 mm 0.00 in0.0 mm 0.08 in2.0 mm
06:19 AM 38.2°F3.4°C 37.4°F3.0°C 97% 1.1 mph NE1.8 kmh NE 2.0 mph3.2 kmh 30.26 in1024.7 mb 0.00 in0.0 mm 0.00 in0.0 mm 0.08 in2.0 mm
06:24 AM 38.3°F3.5°C 37.5°F3.1°C 97% Calm Calm 2.0 mph3.2 kmh 30.26 in1024.7 mb 0.00 in0.0 mm 0.00 in0.0 mm 0.08 in2.0 mm
06:29 AM 38.4°F3.6°C 37.6°F3.1°C 97% Calm Calm 2.0 mph3.2 kmh 30.26 in1024.7 mb 0.00 in0.0 mm 0.00 in0.0 mm 0.08 in2.0 mm
06:34 AM 38.3°F3.5°C 37.5°F3.1°C 97% 1.0 mph ENE1.6 kmh ENE 2.0 mph3.2 kmh 30.25 in1024.4 mb 0.00 in0.0 mm 0.00 in0.0 mm 0.08 in2.0 mm
06:39 AM 38.3°F3.5°C 37.5°F3.1°C 97% 1.0 mph NE1.6 kmh NE 2.0 mph3.2 kmh 30.25 in1024.4 mb 0.00 in0.0 mm 0.00 in0.0 mm 0.08 in2.0 mm
06:44 AM 38.4°F3.6°C 37.6°F3.1°C 97% 1.3 mph NE2.1 kmh NE 2.0 mph3.2 kmh 30.25 in1024.4 mb 0.00 in0.0 mm 0.00 in0.0 mm 0.08 in2.0 mm
06:49 AM 38.4°F3.6°C 37.6°F3.1°C 97% 1.3 mph NE2.1 kmh NE 2.0 mph3.2 kmh 30.25 in1024.4 mb 0.00 in0.0 mm 0.00 in0.0 mm 0.08 in2.0 mm
06:55 AM 38.4°F3.6°C 37.6°F3.1°C 97% 1.5 mph NE2.4 kmh NE 3.0 mph4.8 kmh 30.25 in1024.4 mb 0.00 in0.0 mm 0.00 in0.0 mm 0.08 in2.0 mm
06:59 AM 38.5°F3.6°C 37.7°F3.2°C 97% Calm Calm 3.0 mph4.8 kmh 30.25 in1024.4 mb 0.00 in0.0 mm 0.00 in0.0 mm 0.08 in2.0 mm
07:05 AM 38.5°F3.6°C 37.7°F3.2°C 97% Calm Calm 3.0 mph4.8 kmh 30.25 in1024.4 mb 0.00 in0.0 mm 0.00 in0.0 mm 0.08 in2.0 mm
07:10 AM 38.4°F3.6°C 37.6°F3.1°C 97% 1.0 mph ENE1.6 kmh ENE 3.0 mph4.8 kmh 30.24 in1024.0 mb 0.00 in0.0 mm 0.00 in0.0 mm 0.08 in2.0 mm
07:15 AM 38.5°F3.6°C 37.7°F3.2°C 97% 1.3 mph ENE2.1 kmh ENE 2.0 mph3.2 kmh 30.24 in1024.0 mb 0.00 in0.0 mm 0.00 in0.0 mm 0.08 in2.0 mm
07:20 AM 38.6°F3.7°C 37.8°F3.2°C 97% 1.9 mph NE3.1 kmh NE 4.0 mph6.4 kmh 30.24 in1024.0 mb 0.00 in0.0 mm 0.00 in0.0 mm 0.08 in2.0 mm
07:25 AM 38.5°F3.6°C 37.7°F3.2°C 97% 2.1 mph NE3.4 kmh NE 4.0 mph6.4 kmh 30.24 in1024.0 mb 0.00 in0.0 mm 0.00 in0.0 mm 0.08 in2.0 mm
07:30 AM 38.6°F3.7°C 37.8°F3.2°C 97% 1.0 mph ENE1.6 kmh ENE 4.0 mph6.4 kmh 30.24 in1024.0 mb 0.00 in0.0 mm 0.00 in0.0 mm 0.08 in2.0 mm
07:35 AM 38.6°F3.7°C 37.8°F3.2°C 97% 2.1 mph NE3.4 kmh NE 4.0 mph6.4 kmh 30.24 in1024.0 mb 0.00 in0.0 mm 0.00 in0.0 mm 0.08 in2.0 mm
07:40 AM 38.6°F3.7°C 37.8°F3.2°C 97% 1.0 mph NNE1.6 kmh NNE 3.0 mph4.8 kmh 30.24 in1024.0 mb 0.00 in0.0 mm 0.00 in0.0 mm 0.08 in2.0 mm
07:45 AM 38.5°F3.6°C 37.7°F3.2°C 97% 1.0 mph NE1.6 kmh NE 3.0 mph4.8 kmh 30.24 in1024.0 mb 0.00 in0.0 mm 0.00 in0.0 mm 0.08 in2.0 mm
07:50 AM 38.7°F3.7°C 37.9°F3.3°C 97% 1.0 mph E1.6 kmh E 3.0 mph4.8 kmh 30.24 in1024.0 mb 0.00 in0.0 mm 0.00 in0.0 mm 0.08 in2.0 mm
07:55 AM 38.7°F3.7°C 37.9°F3.3°C 97% 1.7 mph E2.7 kmh E 3.0 mph4.8 kmh 30.23 in1023.7 mb 0.00 in0.0 mm 0.00 in0.0 mm 0.08 in2.0 mm
08:00 AM 38.7°F3.7°C 37.9°F3.3°C 97% 1.4 mph E2.3 kmh E 2.0 mph3.2 kmh 30.23 in1023.7 mb 0.00 in0.0 mm 0.00 in0.0 mm 0.08 in2.0 mm
08:05 AM 38.7°F3.7°C 37.9°F3.3°C 97% 2.1 mph ENE3.4 kmh ENE 4.0 mph6.4 kmh 30.24 in1024.0 mb 0.00 in0.0 mm 0.00 in0.0 mm 0.08 in2.0 mm
08:10 AM 38.7°F3.7°C 37.9°F3.3°C 97% 1.7 mph NE2.7 kmh NE 4.0 mph6.4 kmh 30.24 in1024.0 mb 0.00 in0.0 mm 0.00 in0.0 mm 0.08 in2.0 mm
08:15 AM 38.8°F3.8°C 38.0°F3.3°C 97% 1.0 mph ENE1.6 kmh ENE 4.0 mph6.4 kmh 30.24 in1024.0 mb 0.00 in0.0 mm 0.00 in0.0 mm 0.08 in2.0 mm
08:20 AM 38.8°F3.8°C 38.0°F3.3°C 97% 2.6 mph E4.2 kmh E 4.0 mph6.4 kmh 30.23 in1023.7 mb 0.00 in0.0 mm 0.00 in0.0 mm 0.08 in2.0 mm
08:25 AM 38.8°F3.8°C 38.0°F3.3°C 97% 2.0 mph ENE3.2 kmh ENE 4.0 mph6.4 kmh 30.23 in1023.7 mb 0.00 in0.0 mm 0.00 in0.0 mm 0.08 in2.0 mm
08:30 AM 39.0°F3.9°C 38.2°F3.4°C 97% 1.3 mph ENE2.1 kmh ENE 4.0 mph6.4 kmh 30.23 in1023.7 mb 0.00 in0.0 mm 0.00 in0.0 mm 0.08 in2.0 mm
08:35 AM 39.1°F3.9°C 38.3°F3.5°C 97% 1.2 mph NE1.9 kmh NE 4.0 mph6.4 kmh 30.24 in1024.0 mb 0.00 in0.0 mm 0.00 in0.0 mm 0.08 in2.0 mm
08:40 AM 39.1°F3.9°C 38.3°F3.5°C 97% 1.0 mph NE1.6 kmh NE 3.0 mph4.8 kmh 30.24 in1024.0 mb 0.00 in0.0 mm 0.00 in0.0 mm 0.08 in2.0 mm
08:45 AM 39.3°F4.1°C 38.5°F3.6°C 97% 1.0 mph NE1.6 kmh NE 3.0 mph4.8 kmh 30.24 in1024.0 mb 0.00 in0.0 mm 0.00 in0.0 mm 0.08 in2.0 mm
08:50 AM 39.3°F4.1°C 38.5°F3.6°C 97% Calm Calm 2.0 mph3.2 kmh 30.24 in1024.0 mb 0.00 in0.0 mm 0.00 in0.0 mm 0.08 in2.0 mm
08:55 AM 39.6°F4.2°C 39.1°F3.9°C 98% 1.8 mph ENE2.9 kmh ENE 2.0 mph3.2 kmh 30.24 in1024.0 mb 0.00 in0.0 mm 0.00 in0.0 mm 0.08 in2.0 mm
09:00 AM 39.6°F4.2°C 39.1°F3.9°C 98% 1.9 mph ENE3.1 kmh ENE 3.0 mph4.8 kmh 30.23 in1023.7 mb 0.00 in0.0 mm 0.00 in0.0 mm 0.08 in2.0 mm
09:05 AM 39.9°F4.4°C 39.4°F4.1°C 98% Calm Calm 3.0 mph4.8 kmh 30.24 in1024.0 mb 0.00 in0.0 mm 0.00 in0.0 mm 0.08 in2.0 mm
09:10 AM 40.1°F4.5°C 39.6°F4.2°C 98% 1.0 mph ENE1.6 kmh ENE 3.0 mph4.8 kmh 30.24 in1024.0 mb 0.00 in0.0 mm 0.00 in0.0 mm 0.08 in2.0 mm
09:15 AM 40.2°F4.6°C 39.7°F4.3°C 98% 1.0 mph E1.6 kmh E 3.0 mph4.8 kmh 30.24 in1024.0 mb 0.00 in0.0 mm 0.00 in0.0 mm 0.08 in2.0 mm
09:20 AM 40.3°F4.6°C 39.8°F4.3°C 98% 1.0 mph E1.6 kmh E 1.0 mph1.6 kmh 30.24 in1024.0 mb 0.00 in0.0 mm 0.00 in0.0 mm 0.08 in2.0 mm
09:25 AM 40.6°F4.8°C 40.1°F4.5°C 98% Calm Calm 1.0 mph1.6 kmh 30.24 in1024.0 mb 0.00 in0.0 mm 0.00 in0.0 mm 0.08 in2.0 mm
09:30 AM 40.8°F4.9°C 40.3°F4.6°C 98% 1.0 mph E1.6 kmh E 1.0 mph1.6 kmh 30.24 in1024.0 mb 0.00 in0.0 mm 0.00 in0.0 mm 0.08 in2.0 mm
09:35 AM 41.0°F5.0°C 40.5°F4.7°C 98% 1.0 mph E1.6 kmh E 1.0 mph1.6 kmh 30.24 in1024.0 mb 0.00 in0.0 mm 0.00 in0.0 mm 0.08 in2.0 mm
09:40 AM 40.9°F4.9°C 40.4°F4.7°C 98% 1.0 mph E1.6 kmh E 1.0 mph1.6 kmh 30.23 in1023.7 mb 0.00 in0.0 mm 0.00 in0.0 mm 0.08 in2.0 mm
09:45 AM 40.8°F4.9°C 40.3°F4.6°C 98% 1.3 mph ENE2.1 kmh ENE 2.0 mph3.2 kmh 30.23 in1023.7 mb 0.00 in0.0 mm 0.00 in0.0 mm 0.08 in2.0 mm
09:50 AM 41.1°F5.1°C 40.6°F4.8°C 98% 1.0 mph E1.6 kmh E 2.0 mph3.2 kmh 30.23 in1023.7 mb 0.00 in0.0 mm 0.00 in0.0 mm 0.08 in2.0 mm
09:55 AM 41.1°F5.1°C 40.6°F4.8°C 98% 1.0 mph E1.6 kmh E 2.0 mph3.2 kmh 30.23 in1023.7 mb 0.00 in0.0 mm 0.00 in0.0 mm 0.08 in2.0 mm
10:00 AM 41.1°F5.1°C 40.6°F4.8°C 98% 1.0 mph NE1.6 kmh NE 2.0 mph3.2 kmh 30.23 in1023.7 mb 0.00 in0.0 mm 0.00 in0.0 mm 0.08 in2.0 mm
10:05 AM 41.2°F5.1°C 40.7°F4.8°C 98% 1.0 mph E1.6 kmh E 2.0 mph3.2 kmh 30.23 in1023.7 mb 0.00 in0.0 mm 0.00 in0.0 mm 0.08 in2.0 mm
10:10 AM 41.2°F5.1°C 40.7°F4.8°C 98% 1.0 mph E1.6 kmh E 2.0 mph3.2 kmh 30.23 in1023.7 mb 0.00 in0.0 mm 0.00 in0.0 mm 0.08 in2.0 mm
10:15 AM 41.2°F5.1°C 40.7°F4.8°C 98% 1.7 mph E2.7 kmh E 2.0 mph3.2 kmh 30.23 in1023.7 mb 0.00 in0.0 mm 0.00 in0.0 mm 0.08 in2.0 mm
10:20 AM 41.3°F5.2°C 40.8°F4.9°C 98% 1.2 mph ENE1.9 kmh ENE 2.0 mph3.2 kmh 30.23 in1023.7 mb 0.00 in0.0 mm 0.00 in0.0 mm 0.08 in2.0 mm
10:25 AM 41.5°F5.3°C 41.0°F5.0°C 98% 1.0 mph ENE1.6 kmh ENE 2.0 mph3.2 kmh 30.23 in1023.7 mb 0.00 in0.0 mm 0.00 in0.0 mm 0.08 in2.0 mm
10:30 AM 41.6°F5.3°C 41.1°F5.1°C 98% 1.4 mph E2.3 kmh E 2.0 mph3.2 kmh 30.23 in1023.7 mb 0.00 in0.0 mm 0.00 in0.0 mm 0.08 in2.0 mm
10:35 AM 41.8°F5.4°C 41.3°F5.2°C 98% 1.5 mph ENE2.4 kmh ENE 3.0 mph4.8 kmh 30.23 in1023.7 mb 0.00 in0.0 mm 0.00 in0.0 mm 0.08 in2.0 mm
10:39 AM 41.9°F5.5°C 41.4°F5.2°C 98% 1.6 mph E2.6 kmh E 3.0 mph4.8 kmh 30.23 in1023.7 mb 0.00 in0.0 mm 0.00 in0.0 mm 0.08 in2.0 mm
10:44 AM 42.0°F5.6°C 41.5°F5.3°C 98% 1.3 mph E2.1 kmh E 3.0 mph4.8 kmh 30.23 in1023.7 mb 0.00 in0.0 mm 0.00 in0.0 mm 0.08 in2.0 mm
10:49 AM 42.3°F5.7°C 41.8°F5.4°C 98% 1.3 mph E2.1 kmh E 3.0 mph4.8 kmh 30.23 in1023.7 mb 0.00 in0.0 mm 0.00 in0.0 mm 0.08 in2.0 mm
10:54 AM 42.3°F5.7°C 41.8°F5.4°C 98% 1.8 mph ENE2.9 kmh ENE 3.0 mph4.8 kmh 30.22 in1023.4 mb 0.00 in0.0 mm 0.00 in0.0 mm 0.08 in2.0 mm
10:59 AM 42.4°F5.8°C 41.9°F5.5°C 98% 1.1 mph E1.8 kmh E 3.0 mph4.8 kmh 30.22 in1023.4 mb 0.00 in0.0 mm 0.00 in0.0 mm 0.08 in2.0 mm
11:04 AM 42.7°F5.9°C 42.2°F5.7°C 98% 1.6 mph E2.6 kmh E 3.0 mph4.8 kmh 30.22 in1023.4 mb 0.00 in0.0 mm 0.00 in0.0 mm 0.08 in2.0 mm
11:09 AM 42.8°F6.0°C 42.3°F5.7°C 98% 1.0 mph SE1.6 kmh SE 3.0 mph4.8 kmh 30.22 in1023.4 mb 0.00 in0.0 mm 0.00 in0.0 mm 0.08 in2.0 mm
11:14 AM 42.9°F6.1°C 42.4°F5.8°C 98% 1.0 mph ENE1.6 kmh ENE 3.0 mph4.8 kmh 30.22 in1023.4 mb 0.00 in0.0 mm 0.00 in0.0 mm 0.08 in2.0 mm
11:19 AM 43.4°F6.3°C 42.8°F6.0°C 98% 1.3 mph ESE2.1 kmh ESE 3.0 mph4.8 kmh 30.22 in1023.4 mb 0.00 in0.0 mm 0.00 in0.0 mm 0.08 in2.0 mm
11:24 AM 43.4°F6.3°C 42.9°F6.1°C 98% 1.0 mph E1.6 kmh E 3.0 mph4.8 kmh 30.21 in1023.0 mb 0.00 in0.0 mm 0.00 in0.0 mm 0.08 in2.0 mm
11:29 AM 43.8°F6.6°C 43.2°F6.2°C 98% 1.0 mph E1.6 kmh E 2.0 mph3.2 kmh 30.21 in1023.0 mb 0.00 in0.0 mm 0.00 in0.0 mm 0.08 in2.0 mm
11:34 AM 44.1°F6.7°C 43.5°F6.4°C 98% 1.4 mph E2.3 kmh E 3.0 mph4.8 kmh 30.21 in1023.0 mb 0.00 in0.0 mm 0.00 in0.0 mm 0.08 in2.0 mm
11:39 AM 44.5°F6.9°C 43.9°F6.6°C 98% 1.6 mph E2.6 kmh E 3.0 mph4.8 kmh 30.20 in1022.7 mb 0.00 in0.0 mm 0.00 in0.0 mm 0.08 in2.0 mm
11:44 AM 44.6°F7.0°C 44.0°F6.7°C 98% 2.0 mph ESE3.2 kmh ESE 4.0 mph6.4 kmh 30.19 in1022.4 mb 0.00 in0.0 mm 0.00 in0.0 mm 0.08 in2.0 mm
11:49 AM 44.8°F7.1°C 44.2°F6.8°C 98% 3.6 mph ENE5.8 kmh ENE 6.0 mph9.7 kmh 30.19 in1022.4 mb 0.00 in0.0 mm 0.00 in0.0 mm 0.08 in2.0 mm
11:54 AM 44.9°F7.2°C 44.4°F6.9°C 98% 2.6 mph E4.2 kmh E 6.0 mph9.7 kmh 30.19 in1022.4 mb 0.00 in0.0 mm 0.00 in0.0 mm 0.08 in2.0 mm
11:59 AM 45.1°F7.3°C 44.5°F6.9°C 98% 1.0 mph NE1.6 kmh NE 6.0 mph9.7 kmh 30.19 in1022.4 mb 0.00 in0.0 mm 0.00 in0.0 mm 0.08 in2.0 mm
12:04 PM 45.6°F7.6°C 45.0°F7.2°C 98% 1.1 mph SE1.8 kmh SE 6.0 mph9.7 kmh 30.19 in1022.4 mb 0.00 in0.0 mm 0.00 in0.0 mm 0.08 in2.0 mm
12:09 PM 45.6°F7.6°C 45.0°F7.2°C 98% 1.4 mph SSE2.3 kmh SSE 4.0 mph6.4 kmh 30.19 in1022.4 mb 0.00 in0.0 mm 0.00 in0.0 mm 0.08 in2.0 mm
12:14 PM 45.7°F7.6°C 45.1°F7.3°C 98% 1.0 mph E1.6 kmh E 3.0 mph4.8 kmh 30.19 in1022.4 mb 0.00 in0.0 mm 0.00 in0.0 mm 0.08 in2.0 mm
12:19 PM 45.7°F7.6°C 45.1°F7.3°C 98% 1.0 mph E1.6 kmh E 3.0 mph4.8 kmh 30.18 in1022.0 mb 0.00 in0.0 mm 0.00 in0.0 mm 0.08 in2.0 mm
12:24 PM 46.3°F7.9°C 45.7°F7.6°C 98% Calm Calm 3.0 mph4.8 kmh 30.18 in1022.0 mb 0.00 in0.0 mm 0.00 in0.0 mm 0.08 in2.0 mm
12:29 PM 46.5°F8.1°C 45.9°F7.7°C 98% 2.1 mph E3.4 kmh E 4.0 mph6.4 kmh 30.17 in1021.7 mb 0.00 in0.0 mm 0.00 in0.0 mm 0.08 in2.0 mm
12:34 PM 46.4°F8.0°C 45.8°F7.7°C 98% 3.1 mph ESE5.0 kmh ESE 5.0 mph8.0 kmh 30.17 in1021.7 mb 0.00 in0.0 mm 0.00 in0.0 mm 0.08 in2.0 mm
12:39 PM 46.6°F8.1°C 46.1°F7.8°C 98% 1.6 mph SE2.6 kmh SE 5.0 mph8.0 kmh 30.16 in1021.3 mb 0.00 in0.0 mm 0.00 in0.0 mm 0.08 in2.0 mm
12:44 PM 46.8°F8.2°C 46.2°F7.9°C 98% 1.4 mph ESE2.3 kmh ESE 5.0 mph8.0 kmh 30.16 in1021.3 mb 0.00 in0.0 mm 0.00 in0.0 mm 0.08 in2.0 mm
12:49 PM 47.0°F8.3°C 46.4°F8.0°C 98% 1.0 mph SSE1.6 kmh SSE 5.0 mph8.0 kmh 30.16 in1021.3 mb 0.00 in0.0 mm 0.00 in0.0 mm 0.08 in2.0 mm
12:54 PM 47.2°F8.4°C 46.6°F8.1°C 98% 2.1 mph SE3.4 kmh SE 4.0 mph6.4 kmh 30.16 in1021.3 mb 0.00 in0.0 mm 0.00 in0.0 mm 0.08 in2.0 mm
12:59 PM 47.7°F8.7°C 47.1°F8.4°C 98% 1.6 mph SE2.6 kmh SE 4.0 mph6.4 kmh 30.15 in1021.0 mb 0.00 in0.0 mm 0.00 in0.0 mm 0.08 in2.0 mm
01:04 PM 47.7°F8.7°C 47.1°F8.4°C 98% 1.4 mph SE2.3 kmh SE 4.0 mph6.4 kmh 30.15 in1021.0 mb 0.00 in0.0 mm 0.00 in0.0 mm 0.08 in2.0 mm
01:09 PM 48.3°F9.1°C 47.7°F8.7°C 98% 1.0 mph ESE1.6 kmh ESE 4.0 mph6.4 kmh 30.15 in1021.0 mb 0.00 in0.0 mm 0.00 in0.0 mm 0.08 in2.0 mm
01:14 PM 48.4°F9.1°C 47.9°F8.8°C 98% 1.3 mph SSE2.1 kmh SSE 3.0 mph4.8 kmh 30.14 in1020.7 mb 0.00 in0.0 mm 0.00 in0.0 mm 0.08 in2.0 mm
01:19 PM 48.7°F9.3°C 48.1°F8.9°C 98% 1.0 mph SE1.6 kmh SE 3.0 mph4.8 kmh 30.14 in1020.7 mb 0.00 in0.0 mm 0.00 in0.0 mm 0.08 in2.0 mm
01:24 PM 49.2°F9.6°C 48.6°F9.2°C 98% 1.0 mph SSE1.6 kmh SSE 3.0 mph4.8 kmh 30.14 in1020.7 mb 0.00 in0.0 mm 0.00 in0.0 mm 0.08 in2.0 mm
01:29 PM 49.4°F9.7°C 48.9°F9.4°C 98% 1.0 mph W1.6 kmh W 3.0 mph4.8 kmh 30.14 in1020.7 mb 0.00 in0.0 mm 0.00 in0.0 mm 0.08 in2.0 mm
01:34 PM 49.5°F9.7°C 48.9°F9.4°C 98% Calm Calm 1.0 mph1.6 kmh 30.14 in1020.7 mb 0.00 in0.0 mm 0.00 in0.0 mm 0.08 in2.0 mm
01:39 PM 49.7°F9.8°C 49.1°F9.5°C 98% 1.0 mph W1.6 kmh W 1.0 mph1.6 kmh 30.14 in1020.7 mb 0.00 in0.0 mm 0.00 in0.0 mm 0.08 in2.0 mm
01:44 PM 49.6°F9.8°C 49.0°F9.4°C 98% 1.0 mph N1.6 kmh N 1.0 mph1.6 kmh 30.13 in1020.3 mb 0.00 in0.0 mm 0.00 in0.0 mm 0.08 in2.0 mm
01:49 PM 49.7°F9.8°C 49.1°F9.5°C 98% 1.2 mph NNW1.9 kmh NNW 2.0 mph3.2 kmh 30.13 in1020.3 mb 0.00 in0.0 mm 0.00 in0.0 mm 0.08 in2.0 mm
01:54 PM 49.8°F9.9°C 49.2°F9.6°C 98% Calm Calm 2.0 mph3.2 kmh 30.13 in1020.3 mb 0.00 in0.0 mm 0.00 in0.0 mm 0.08 in2.0 mm
01:59 PM 50.0°F10.0°C 49.4°F9.7°C 98% 1.0 mph NE1.6 kmh NE 2.0 mph3.2 kmh 30.13 in1020.3 mb 0.00 in0.0 mm 0.00 in0.0 mm 0.08 in2.0 mm
02:04 PM 50.1°F10.1°C 49.5°F9.7°C 98% Calm Calm 2.0 mph3.2 kmh 30.13 in1020.3 mb 0.00 in0.0 mm 0.00 in0.0 mm 0.08 in2.0 mm
02:09 PM 49.9°F9.9°C 49.4°F9.7°C 98% 1.2 mph NE1.9 kmh NE 2.0 mph3.2 kmh 30.13 in1020.3 mb 0.00 in0.0 mm 0.00 in0.0 mm 0.08 in2.0 mm
02:14 PM 49.8°F9.9°C 49.2°F9.6°C 98% 1.6 mph NE2.6 kmh NE 3.0 mph4.8 kmh 30.13 in1020.3 mb 0.00 in0.0 mm 0.00 in0.0 mm 0.08 in2.0 mm
02:19 PM 49.8°F9.9°C 49.2°F9.6°C 98% 1.0 mph N1.6 kmh N 3.0 mph4.8 kmh 30.13 in1020.3 mb 0.00 in0.0 mm 0.00 in0.0 mm 0.08 in2.0 mm
02:24 PM 49.9°F9.9°C 49.3°F9.6°C 98% Calm Calm 3.0 mph4.8 kmh 30.13 in1020.3 mb 0.00 in0.0 mm 0.00 in0.0 mm 0.08 in2.0 mm
02:29 PM 50.2°F10.1°C 49.7°F9.8°C 98% 1.0 mph NE1.6 kmh NE 3.0 mph4.8 kmh 30.13 in1020.3 mb 0.00 in0.0 mm 0.00 in0.0 mm 0.08 in2.0 mm
02:34 PM 50.2°F10.1°C 49.6°F9.8°C 98% 1.7 mph NE2.7 kmh NE 4.0 mph6.4 kmh 30.13 in1020.3 mb 0.00 in0.0 mm 0.00 in0.0 mm 0.08 in2.0 mm
02:39 PM 49.8°F9.9°C 49.2°F9.6°C 98% 1.7 mph NE2.7 kmh NE 4.0 mph6.4 kmh 30.13 in1020.3 mb 0.00 in0.0 mm 0.00 in0.0 mm 0.08 in2.0 mm
02:44 PM 49.7°F9.8°C 49.1°F9.5°C 98% 1.6 mph NE2.6 kmh NE 4.0 mph6.4 kmh 30.12 in1020.0 mb 0.00 in0.0 mm 0.00 in0.0 mm 0.08 in2.0 mm
02:49 PM 49.9°F9.9°C 49.4°F9.7°C 98% 1.1 mph NE1.8 kmh NE 4.0 mph6.4 kmh 30.12 in1020.0 mb 0.00 in0.0 mm 0.00 in0.0 mm 0.08 in2.0 mm
02:54 PM 49.7°F9.8°C 49.1°F9.5°C 98% 1.9 mph E3.1 kmh E 4.0 mph6.4 kmh 30.11 in1019.6 mb 0.00 in0.0 mm 0.00 in0.0 mm 0.08 in2.0 mm
02:59 PM 49.7°F9.8°C 49.1°F9.5°C 98% 1.2 mph E1.9 kmh E 4.0 mph6.4 kmh 30.11 in1019.6 mb 0.00 in0.0 mm 0.00 in0.0 mm 0.08 in2.0 mm
03:04 PM 49.6°F9.8°C 49.1°F9.5°C 98% 1.8 mph E2.9 kmh E 4.0 mph6.4 kmh 30.11 in1019.6 mb 0.00 in0.0 mm 0.00 in0.0 mm 0.08 in2.0 mm
03:09 PM 49.7°F9.8°C 49.1°F9.5°C 98% 1.0 mph ENE1.6 kmh ENE 4.0 mph6.4 kmh 30.11 in1019.6 mb 0.00 in0.0 mm 0.00 in0.0 mm 0.08 in2.0 mm
03:14 PM 49.7°F9.8°C 49.1°F9.5°C 98% 1.5 mph ENE2.4 kmh ENE 4.0 mph6.4 kmh 30.11 in1019.6 mb 0.00 in0.0 mm 0.00 in0.0 mm 0.08 in2.0 mm
03:19 PM 49.6°F9.8°C 49.0°F9.4°C 98% 1.4 mph ENE2.3 kmh ENE 4.0 mph6.4 kmh 30.11 in1019.6 mb 0.00 in0.0 mm 0.00 in0.0 mm 0.08 in2.0 mm
03:24 PM 49.5°F9.7°C 48.9°F9.4°C 98% 1.3 mph ENE2.1 kmh ENE 3.0 mph4.8 kmh 30.10 in1019.3 mb 0.00 in0.0 mm 0.00 in0.0 mm 0.08 in2.0 mm
03:29 PM 49.5°F9.7°C 49.0°F9.4°C 98% 1.0 mph E1.6 kmh E 4.0 mph6.4 kmh 30.10 in1019.3 mb 0.00 in0.0 mm 0.00 in0.0 mm 0.08 in2.0 mm
03:34 PM 49.7°F9.8°C 49.1°F9.5°C 98% 1.0 mph NE1.6 kmh NE 4.0 mph6.4 kmh 30.10 in1019.3 mb 0.00 in0.0 mm 0.00 in0.0 mm 0.08 in2.0 mm
03:38 PM 49.9°F9.9°C 49.3°F9.6°C 98% 1.2 mph E1.9 kmh E 4.0 mph6.4 kmh 30.10 in1019.3 mb 0.00 in0.0 mm 0.00 in0.0 mm 0.08 in2.0 mm
03:43 PM 50.0°F10.0°C 49.4°F9.7°C 98% 1.0 mph ESE1.6 kmh ESE 4.0 mph6.4 kmh 30.09 in1019.0 mb 0.00 in0.0 mm 0.00 in0.0 mm 0.08 in2.0 mm
03:48 PM 50.2°F10.1°C 49.7°F9.8°C 98% 1.0 mph ENE1.6 kmh ENE 3.0 mph4.8 kmh 30.10 in1019.3 mb 0.00 in0.0 mm 0.00 in0.0 mm 0.08 in2.0 mm
03:53 PM 50.0°F10.0°C 49.4°F9.7°C 98% 1.1 mph E1.8 kmh E 3.0 mph4.8 kmh 30.10 in1019.3 mb 0.00 in0.0 mm 0.00 in0.0 mm 0.08 in2.0 mm
03:58 PM 50.2°F10.1°C 49.6°F9.8°C 98% 1.1 mph E1.8 kmh E 3.0 mph4.8 kmh 30.09 in1019.0 mb 0.00 in0.0 mm 0.00 in0.0 mm 0.08 in2.0 mm
04:03 PM 50.3°F10.2°C 49.7°F9.8°C 98% 1.4 mph ENE2.3 kmh ENE 4.0 mph6.4 kmh 30.09 in1019.0 mb 0.00 in0.0 mm 0.00 in0.0 mm 0.08 in2.0 mm
04:08 PM 50.3°F10.2°C 49.7°F9.8°C 98% 2.7 mph NE4.3 kmh NE 4.0 mph6.4 kmh 30.10 in1019.3 mb 0.00 in0.0 mm 0.00 in0.0 mm 0.08 in2.0 mm
04:13 PM 50.3°F10.2°C 49.7°F9.8°C 98% 1.0 mph ENE1.6 kmh ENE 4.0 mph6.4 kmh 30.10 in1019.3 mb 0.00 in0.0 mm 0.00 in0.0 mm 0.08 in2.0 mm
04:18 PM 50.1°F10.1°C 49.5°F9.7°C 98% 1.8 mph ENE2.9 kmh ENE 4.0 mph6.4 kmh 30.10 in1019.3 mb 0.00 in0.0 mm 0.00 in0.0 mm 0.08 in2.0 mm
04:23 PM 50.2°F10.1°C 49.6°F9.8°C 98% 1.2 mph ENE1.9 kmh ENE 4.0 mph6.4 kmh 30.10 in1019.3 mb 0.00 in0.0 mm 0.00 in0.0 mm 0.08 in2.0 mm
04:28 PM 50.4°F10.2°C 49.8°F9.9°C 98% 1.8 mph E2.9 kmh E 3.0 mph4.8 kmh 30.10 in1019.3 mb 0.00 in0.0 mm 0.00 in0.0 mm 0.08 in2.0 mm
04:33 PM 50.4°F10.2°C 49.8°F9.9°C 98% 1.6 mph E2.6 kmh E 3.0 mph4.8 kmh 30.09 in1019.0 mb 0.00 in0.0 mm 0.00 in0.0 mm 0.08 in2.0 mm
04:38 PM 50.7°F10.4°C 50.2°F10.1°C 98% Calm Calm 3.0 mph4.8 kmh 30.09 in1019.0 mb 0.00 in0.0 mm 0.00 in0.0 mm 0.08 in2.0 mm
04:43 PM 50.6°F10.3°C 50.0°F10.0°C 98% 1.4 mph E2.3 kmh E 3.0 mph4.8 kmh 30.10 in1019.3 mb 0.00 in0.0 mm 0.00 in0.0 mm 0.08 in2.0 mm
04:48 PM 50.8°F10.4°C 50.2°F10.1°C 98% 1.3 mph ENE2.1 kmh ENE 3.0 mph4.8 kmh 30.09 in1019.0 mb 0.00 in0.0 mm 0.00 in0.0 mm 0.08 in2.0 mm
04:53 PM 51.0°F10.6°C 50.4°F10.2°C 98% 1.7 mph E2.7 kmh E 3.0 mph4.8 kmh 30.09 in1019.0 mb 0.00 in0.0 mm 0.00 in0.0 mm 0.08 in2.0 mm
04:58 PM 51.0°F10.6°C 50.4°F10.2°C 98% 1.4 mph E2.3 kmh E 3.0 mph4.8 kmh 30.09 in1019.0 mb 0.00 in0.0 mm 0.00 in0.0 mm 0.08 in2.0 mm
05:03 PM 51.1°F10.6°C 50.5°F10.3°C 98% 1.3 mph E2.1 kmh E 3.0 mph4.8 kmh 30.09 in1019.0 mb 0.00 in0.0 mm 0.00 in0.0 mm 0.08 in2.0 mm
05:08 PM 51.3°F10.7°C 50.7°F10.4°C 98% 1.1 mph E1.8 kmh E 3.0 mph4.8 kmh 30.09 in1019.0 mb 0.00 in0.0 mm 0.00 in0.0 mm 0.08 in2.0 mm
05:13 PM 51.3°F10.7°C 50.7°F10.4°C 98% 1.4 mph E2.3 kmh E 3.0 mph4.8 kmh 30.09 in1019.0 mb 0.00 in0.0 mm 0.00 in0.0 mm 0.08 in2.0 mm
05:18 PM 51.2°F10.7°C 50.6°F10.3°C 98% 1.1 mph ESE1.8 kmh ESE 3.0 mph4.8 kmh 30.09 in1019.0 mb 0.00 in0.0 mm 0.00 in0.0 mm 0.08 in2.0 mm
05:23 PM 51.3°F10.7°C 50.7°F10.4°C 98% Calm Calm 3.0 mph4.8 kmh 30.09 in1019.0 mb 0.00 in0.0 mm 0.00 in0.0 mm 0.08 in2.0 mm
05:28 PM 51.4°F10.8°C 50.8°F10.4°C 98% 1.1 mph E1.8 kmh E 3.0 mph4.8 kmh 30.09 in1019.0 mb 0.00 in0.0 mm 0.00 in0.0 mm 0.08 in2.0 mm
05:33 PM 51.4°F10.8°C 50.8°F10.4°C 98% 1.5 mph E2.4 kmh E 2.0 mph3.2 kmh 30.09 in1019.0 mb 0.00 in0.0 mm 0.00 in0.0 mm 0.08 in2.0 mm
05:38 PM 51.4°F10.8°C 50.9°F10.5°C 98% 1.6 mph ESE2.6 kmh ESE 4.0 mph6.4 kmh 30.09 in1019.0 mb 0.00 in0.0 mm 0.00 in0.0 mm 0.08 in2.0 mm
05:43 PM 51.4°F10.8°C 50.8°F10.4°C 98% 1.7 mph E2.7 kmh E 4.0 mph6.4 kmh 30.08 in1018.6 mb 0.00 in0.0 mm 0.00 in0.0 mm 0.08 in2.0 mm
05:48 PM 51.4°F10.8°C 50.9°F10.5°C 98% 1.0 mph ESE1.6 kmh ESE 4.0 mph6.4 kmh 30.08 in1018.6 mb 0.00 in0.0 mm 0.00 in0.0 mm 0.08 in2.0 mm
05:53 PM 51.5°F10.8°C 51.0°F10.6°C 98% 1.2 mph ESE1.9 kmh ESE 4.0 mph6.4 kmh 30.08 in1018.6 mb 0.00 in0.0 mm 0.00 in0.0 mm 0.08 in2.0 mm
05:58 PM 51.6°F10.9°C 51.0°F10.6°C 98% 1.1 mph SE1.8 kmh SE 3.0 mph4.8 kmh 30.08 in1018.6 mb 0.00 in0.0 mm 0.00 in0.0 mm 0.08 in2.0 mm
06:03 PM 51.7°F10.9°C 51.2°F10.7°C 98% 1.0 mph SE1.6 kmh SE 3.0 mph4.8 kmh 30.09 in1019.0 mb 0.00 in0.0 mm 0.00 in0.0 mm 0.08 in2.0 mm
06:08 PM 51.8°F11.0°C 51.3°F10.7°C 98% Calm Calm 3.0 mph4.8 kmh 30.09 in1019.0 mb 0.00 in0.0 mm 0.00 in0.0 mm 0.08 in2.0 mm
06:13 PM 51.8°F11.0°C 51.3°F10.7°C 98% 1.9 mph SSE3.1 kmh SSE 4.0 mph6.4 kmh 30.10 in1019.3 mb 0.00 in0.0 mm 0.00 in0.0 mm 0.08 in2.0 mm
06:18 PM 51.9°F11.1°C 51.3°F10.7°C 98% 1.0 mph SSE1.6 kmh SSE 4.0 mph6.4 kmh 30.10 in1019.3 mb 0.00 in0.0 mm 0.00 in0.0 mm 0.08 in2.0 mm
06:23 PM 51.9°F11.1°C 51.4°F10.8°C 98% 1.0 mph SE1.6 kmh SE 4.0 mph6.4 kmh 30.10 in1019.3 mb 0.00 in0.0 mm 0.00 in0.0 mm 0.08 in2.0 mm
06:28 PM 51.9°F11.1°C 51.4°F10.8°C 98% Calm Calm 4.0 mph6.4 kmh 30.10 in1019.3 mb 0.00 in0.0 mm 0.00 in0.0 mm 0.08 in2.0 mm
06:33 PM 51.9°F11.1°C 51.3°F10.7°C 98% Calm Calm 3.0 mph4.8 kmh 30.10 in1019.3 mb 0.00 in0.0 mm 0.00 in0.0 mm 0.08 in2.0 mm
06:38 PM 52.0°F11.1°C 51.5°F10.8°C 98% Calm Calm 1.0 mph1.6 kmh 30.10 in1019.3 mb 0.00 in0.0 mm 0.00 in0.0 mm 0.08 in2.0 mm
06:43 PM 52.0°F11.1°C 51.5°F10.8°C 98% 1.0 mph SE1.6 kmh SE 1.0 mph1.6 kmh 30.10 in1019.3 mb 0.00 in0.0 mm 0.00 in0.0 mm 0.08 in2.0 mm
06:48 PM 52.0°F11.1°C 51.5°F10.8°C 98% Calm Calm 1.0 mph1.6 kmh 30.11 in1019.6 mb 0.00 in0.0 mm 0.00 in0.0 mm 0.08 in2.0 mm
06:53 PM 52.1°F11.2°C 51.5°F10.8°C 98% Calm Calm 1.0 mph1.6 kmh 30.10 in1019.3 mb 0.00 in0.0 mm 0.00 in0.0 mm 0.08 in2.0 mm
06:58 PM 52.1°F11.2°C 51.6°F10.9°C 98% 1.0 mph SE1.6 kmh SE 1.0 mph1.6 kmh 30.10 in1019.3 mb 0.00 in0.0 mm 0.00 in0.0 mm 0.08 in2.0 mm
07:03 PM 52.2°F11.2°C 51.6°F10.9°C 98% 1.0 mph SE1.6 kmh SE 1.0 mph1.6 kmh 30.10 in1019.3 mb 0.00 in0.0 mm 0.00 in0.0 mm 0.08 in2.0 mm
07:08 PM 52.2°F11.2°C 51.7°F10.9°C 98% 1.0 mph ESE1.6 kmh ESE 1.0 mph1.6 kmh 30.10 in1019.3 mb 0.00 in0.0 mm 0.00 in0.0 mm 0.08 in2.0 mm
07:13 PM 52.3°F11.3°C 51.7°F10.9°C 98% 1.0 mph ESE1.6 kmh ESE 1.0 mph1.6 kmh 30.10 in1019.3 mb 0.00 in0.0 mm 0.00 in0.0 mm 0.08 in2.0 mm
07:18 PM 52.4°F11.3°C 51.8°F11.0°C 98% 1.0 mph E1.6 kmh E 2.0 mph3.2 kmh 30.10 in1019.3 mb 0.00 in0.0 mm 0.00 in0.0 mm 0.08 in2.0 mm
07:23 PM 52.5°F11.4°C 51.9°F11.1°C 98% Calm Calm 2.0 mph3.2 kmh 30.10 in1019.3 mb 0.00 in0.0 mm 0.00 in0.0 mm 0.08 in2.0 mm
07:28 PM 52.5°F11.4°C 52.0°F11.1°C 98% 1.0 mph E1.6 kmh E 2.0 mph3.2 kmh 30.10 in1019.3 mb 0.00 in0.0 mm 0.00 in0.0 mm 0.08 in2.0 mm
07:33 PM 52.4°F11.3°C 51.8°F11.0°C 98% 1.0 mph E1.6 kmh E 1.0 mph1.6 kmh 30.10 in1019.3 mb 0.00 in0.0 mm 0.00 in0.0 mm 0.08 in2.0 mm
07:38 PM 52.4°F11.3°C 51.8°F11.0°C 98% Calm Calm 1.0 mph1.6 kmh 30.10 in1019.3 mb 0.00 in0.0 mm 0.00 in0.0 mm 0.08 in2.0 mm
07:43 PM 52.4°F11.3°C 51.8°F11.0°C 98% 1.0 mph ENE1.6 kmh ENE 1.0 mph1.6 kmh 30.10 in1019.3 mb 0.00 in0.0 mm 0.00 in0.0 mm 0.08 in2.0 mm
07:48 PM 52.4°F11.3°C 51.8°F11.0°C 98% Calm Calm 1.0 mph1.6 kmh 30.10 in1019.3 mb 0.00 in0.0 mm 0.00 in0.0 mm 0.08 in2.0 mm
07:53 PM 52.5°F11.4°C 51.9°F11.1°C 98% 1.1 mph ENE1.8 kmh ENE 2.0 mph3.2 kmh 30.10 in1019.3 mb 0.00 in0.0 mm 0.00 in0.0 mm 0.08 in2.0 mm
07:58 PM 52.5°F11.4°C 51.9°F11.1°C 98% 1.2 mph ENE1.9 kmh ENE 2.0 mph3.2 kmh 30.10 in1019.3 mb 0.00 in0.0 mm 0.00 in0.0 mm 0.08 in2.0 mm
08:03 PM 52.5°F11.4°C 52.0°F11.1°C 98% 1.6 mph ENE2.6 kmh ENE 2.0 mph3.2 kmh 30.10 in1019.3 mb 0.00 in0.0 mm 0.00 in0.0 mm 0.08 in2.0 mm
08:08 PM 52.2°F11.2°C 51.6°F10.9°C 98% 1.2 mph ENE1.9 kmh ENE 3.0 mph4.8 kmh 30.10 in1019.3 mb 0.00 in0.0 mm 0.00 in0.0 mm 0.08 in2.0 mm
08:13 PM 52.0°F11.1°C 51.4°F10.8°C 98% 1.5 mph ENE2.4 kmh ENE 3.0 mph4.8 kmh 30.10 in1019.3 mb 0.00 in0.0 mm 0.00 in0.0 mm 0.08 in2.0 mm
08:18 PM 52.0°F11.1°C 51.4°F10.8°C 98% 1.0 mph ENE1.6 kmh ENE 3.0 mph4.8 kmh 30.10 in1019.3 mb 0.00 in0.0 mm 0.00 in0.0 mm 0.08 in2.0 mm
08:23 PM 52.0°F11.1°C 51.4°F10.8°C 98% 1.1 mph ENE1.8 kmh ENE 3.0 mph4.8 kmh 30.10 in1019.3 mb 0.00 in0.0 mm 0.00 in0.0 mm 0.08 in2.0 mm
08:28 PM 52.0°F11.1°C 51.4°F10.8°C 98% Calm Calm 2.0 mph3.2 kmh 30.10 in1019.3 mb 0.00 in0.0 mm 0.00 in0.0 mm 0.08 in2.0 mm
08:33 PM 52.0°F11.1°C 51.4°F10.8°C 98% 1.1 mph ENE1.8 kmh ENE 2.0 mph3.2 kmh 30.10 in1019.3 mb 0.00 in0.0 mm 0.00 in0.0 mm 0.08 in2.0 mm
08:38 PM 52.2°F11.2°C 51.7°F10.9°C 98% 1.4 mph ENE2.3 kmh ENE 2.0 mph3.2 kmh 30.10 in1019.3 mb 0.00 in0.0 mm 0.00 in0.0 mm 0.08 in2.0 mm
08:43 PM 52.3°F11.3°C 51.7°F10.9°C 98% 1.0 mph E1.6 kmh E 2.0 mph3.2 kmh 30.10 in1019.3 mb 0.00 in0.0 mm 0.00 in0.0 mm 0.08 in2.0 mm
08:48 PM 52.3°F11.3°C 51.7°F10.9°C 98% 1.0 mph E1.6 kmh E 2.0 mph3.2 kmh 30.10 in1019.3 mb 0.00 in0.0 mm 0.00 in0.0 mm 0.08 in2.0 mm
08:53 PM 52.4°F11.3°C 51.8°F11.0°C 98% 1.5 mph ENE2.4 kmh ENE 3.0 mph4.8 kmh 30.10 in1019.3 mb 0.00 in0.0 mm 0.00 in0.0 mm 0.08 in2.0 mm
08:58 PM 52.4°F11.3°C 51.9°F11.1°C 98% 1.4 mph ENE2.3 kmh ENE 3.0 mph4.8 kmh 30.10 in1019.3 mb 0.00 in0.0 mm 0.00 in0.0 mm 0.08 in2.0 mm
09:03 PM 52.4°F11.3°C 51.9°F11.1°C 98% Calm Calm 3.0 mph4.8 kmh 30.10 in1019.3 mb 0.00 in0.0 mm 0.00 in0.0 mm 0.08 in2.0 mm
09:08 PM 52.4°F11.3°C 51.8°F11.0°C 98% 1.0 mph ENE1.6 kmh ENE 3.0 mph4.8 kmh 30.10 in1019.3 mb 0.00 in0.0 mm 0.00 in0.0 mm 0.08 in2.0 mm
09:13 PM 52.4°F11.3°C 51.8°F11.0°C 98% 1.0 mph ENE1.6 kmh ENE 2.0 mph3.2 kmh 30.10 in1019.3 mb 0.00 in0.0 mm 0.00 in0.0 mm 0.08 in2.0 mm
09:18 PM 52.4°F11.3°C 51.8°F11.0°C 98% 1.0 mph ENE1.6 kmh ENE 2.0 mph3.2 kmh 30.09 in1019.0 mb 0.00 in0.0 mm 0.00 in0.0 mm 0.08 in2.0 mm
09:23 PM 52.5°F11.4°C 51.9°F11.1°C 98% 1.2 mph E1.9 kmh E 2.0 mph3.2 kmh 30.09 in1019.0 mb 0.00 in0.0 mm 0.00 in0.0 mm 0.08 in2.0 mm
09:28 PM 52.4°F11.3°C 51.8°F11.0°C 98% 1.1 mph E1.8 kmh E 2.0 mph3.2 kmh 30.10 in1019.3 mb 0.00 in0.0 mm 0.00 in0.0 mm 0.08 in2.0 mm
09:33 PM 52.4°F11.3°C 51.8°F11.0°C 98% 1.3 mph E2.1 kmh E 2.0 mph3.2 kmh 30.09 in1019.0 mb 0.00 in0.0 mm 0.00 in0.0 mm 0.08 in2.0 mm
09:37 PM 52.5°F11.4°C 52.0°F11.1°C 98% 1.4 mph E2.3 kmh E 2.0 mph3.2 kmh 30.09 in1019.0 mb 0.00 in0.0 mm 0.00 in0.0 mm 0.08 in2.0 mm
09:42 PM 52.5°F11.4°C 52.0°F11.1°C 98% 1.0 mph E1.6 kmh E 3.0 mph4.8 kmh 30.09 in1019.0 mb 0.00 in0.0 mm 0.00 in0.0 mm 0.08 in2.0 mm
09:47 PM 52.6°F11.4°C 52.0°F11.1°C 98% 1.4 mph E2.3 kmh E 3.0 mph4.8 kmh 30.09 in1019.0 mb 0.00 in0.0 mm 0.00 in0.0 mm 0.08 in2.0 mm
09:52 PM 52.7°F11.5°C 52.1°F11.2°C 98% 1.4 mph ESE2.3 kmh ESE 3.0 mph4.8 kmh 30.09 in1019.0 mb 0.01 in0.3 mm 0.12 in3.0 mm 0.09 in2.3 mm
09:57 PM 52.7°F11.5°C 52.1°F11.2°C 98% 1.0 mph E1.6 kmh E 3.0 mph4.8 kmh 30.09 in1019.0 mb 0.01 in0.3 mm 0.00 in0.0 mm 0.09 in2.3 mm
10:02 PM 52.8°F11.6°C 52.2°F11.2°C 98% 1.0 mph E1.6 kmh E 3.0 mph4.8 kmh 30.09 in1019.0 mb 0.01 in0.3 mm 0.00 in0.0 mm 0.09 in2.3 mm
10:07 PM 52.8°F11.6°C 52.3°F11.3°C 98% Calm Calm 2.0 mph3.2 kmh 30.09 in1019.0 mb 0.01 in0.3 mm 0.00 in0.0 mm 0.09 in2.3 mm
10:12 PM 52.9°F11.6°C 52.3°F11.3°C 98% Calm Calm 1.0 mph1.6 kmh 30.09 in1019.0 mb 0.01 in0.3 mm 0.00 in0.0 mm 0.09 in2.3 mm
10:17 PM 53.0°F11.7°C 52.4°F11.3°C 98% 1.0 mph E1.6 kmh E 1.0 mph1.6 kmh 30.09 in1019.0 mb 0.01 in0.3 mm 0.00 in0.0 mm 0.09 in2.3 mm
10:22 PM 53.0°F11.7°C 52.5°F11.4°C 98% Calm Calm 1.0 mph1.6 kmh 30.09 in1019.0 mb 0.01 in0.3 mm 0.00 in0.0 mm 0.09 in2.3 mm
10:27 PM 53.0°F11.7°C 52.4°F11.3°C 98% 1.0 mph E1.6 kmh E 1.0 mph1.6 kmh 30.09 in1019.0 mb 0.01 in0.3 mm 0.00 in0.0 mm 0.09 in2.3 mm
10:32 PM 53.0°F11.7°C 52.5°F11.4°C 98% Calm Calm 1.0 mph1.6 kmh 30.09 in1019.0 mb 0.01 in0.3 mm 0.00 in0.0 mm 0.09 in2.3 mm
10:37 PM 53.1°F11.7°C 52.5°F11.4°C 98% 1.0 mph E1.6 kmh E 1.0 mph1.6 kmh 30.09 in1019.0 mb 0.01 in0.3 mm 0.00 in0.0 mm 0.09 in2.3 mm
10:42 PM 53.1°F11.7°C 52.5°F11.4°C 98% 1.0 mph E1.6 kmh E 1.0 mph1.6 kmh 30.09 in1019.0 mb 0.01 in0.3 mm 0.00 in0.0 mm 0.09 in2.3 mm
10:47 PM 53.1°F11.7°C 52.5°F11.4°C 98% 1.4 mph E2.3 kmh E 2.0 mph3.2 kmh 30.08 in1018.6 mb 0.01 in0.3 mm 0.00 in0.0 mm 0.09 in2.3 mm
10:52 PM 53.0°F11.7°C 52.4°F11.3°C 98% Calm Calm 2.0 mph3.2 kmh 30.09 in1019.0 mb 0.00 in0.0 mm 0.00 in0.0 mm 0.09 in2.3 mm
10:57 PM 53.0°F11.7°C 52.4°F11.3°C 98% Calm Calm 2.0 mph3.2 kmh 30.09 in1019.0 mb 0.00 in0.0 mm 0.00 in0.0 mm 0.09 in2.3 mm
11:02 PM 53.0°F11.7°C 52.5°F11.4°C 98% Calm Calm 2.0 mph3.2 kmh 30.09 in1019.0 mb 0.00 in0.0 mm 0.00 in0.0 mm 0.09 in2.3 mm
11:07 PM 53.1°F11.7°C 52.5°F11.4°C 98% Calm Calm 1.0 mph1.6 kmh 30.09 in1019.0 mb 0.00 in0.0 mm 0.00 in0.0 mm 0.09 in2.3 mm
11:12 PM 53.1°F11.7°C 52.5°F11.4°C 98% 1.0 mph SE1.6 kmh SE 1.0 mph1.6 kmh 30.09 in1019.0 mb 0.00 in0.0 mm 0.00 in0.0 mm 0.09 in2.3 mm
11:17 PM 53.1°F11.7°C 52.5°F11.4°C 98% 1.0 mph SE1.6 kmh SE 1.0 mph1.6 kmh 30.08 in1018.6 mb 0.00 in0.0 mm 0.00 in0.0 mm 0.09 in2.3 mm
11:22 PM 53.3°F11.8°C 52.8°F11.6°C 98% 1.0 mph SE1.6 kmh SE 1.0 mph1.6 kmh 30.08 in1018.6 mb 0.00 in0.0 mm 0.00 in0.0 mm 0.09 in2.3 mm
11:27 PM 53.4°F11.9°C 52.8°F11.6°C 98% 1.1 mph SE1.8 kmh SE 2.0 mph3.2 kmh 30.08 in1018.6 mb 0.00 in0.0 mm 0.00 in0.0 mm 0.09 in2.3 mm
11:32 PM 53.5°F11.9°C 52.9°F11.6°C 98% 1.5 mph SE2.4 kmh SE 2.0 mph3.2 kmh 30.08 in1018.6 mb 0.00 in0.0 mm 0.00 in0.0 mm 0.09 in2.3 mm
11:37 PM 53.6°F12.0°C 53.0°F11.7°C 98% 1.4 mph SE2.3 kmh SE 3.0 mph4.8 kmh 30.08 in1018.6 mb 0.00 in0.0 mm 0.00 in0.0 mm 0.09 in2.3 mm
11:42 PM 53.7°F12.1°C 53.1°F11.7°C 98% 1.8 mph SE2.9 kmh SE 3.0 mph4.8 kmh 30.07 in1018.3 mb 0.00 in0.0 mm 0.00 in0.0 mm 0.09 in2.3 mm
11:47 PM 53.8°F12.1°C 53.2°F11.8°C 98% 1.6 mph SE2.6 kmh SE 4.0 mph6.4 kmh 30.07 in1018.3 mb 0.00 in0.0 mm 0.00 in0.0 mm 0.09 in2.3 mm
11:52 PM 53.9°F12.2°C 53.3°F11.8°C 98% 1.9 mph SE3.1 kmh SE 4.0 mph6.4 kmh 30.07 in1018.3 mb 0.00 in0.0 mm 0.00 in0.0 mm 0.09 in2.3 mm
11:57 PM 54.0°F12.2°C 53.7°F12.1°C 99% 1.5 mph SE2.4 kmh SE 4.0 mph6.4 kmh 30.07 in1018.3 mb 0.00 in0.0 mm 0.00 in0.0 mm 0.09 in2.3 mm